Time;durP1;ratioP1;P1;durP2;ratioP2;P2;SDS_P1;SDS_P2;PMS_P1;PMS_P2;Temp;Humidity;BMP_temperature;BMP_pressure;BME280_temperature;BME280_humidity;BME280_pressure;Samples;Min_cycle;Max_cycle;Signal;HPM_P1;HPM_P2
2022/06/19 00:02:15;;;;;;;8.73;6.43;;;24.70;99.90;;;;;;5082474;28;20526;-38
2022/06/19 00:04:42;;;;;;;6.43;5.63;;;24.60;99.90;;;;;;5078186;28;20942;-37
2022/06/19 00:07:10;;;;;;;9.80;6.70;;;24.60;99.90;;;;;;5086676;28;20470;-35
2022/06/19 00:09:37;;;;;;;10.40;5.83;;;24.50;99.90;;;;;;5089678;28;20443;-37
2022/06/19 00:12:07;;;;;;;7.40;5.80;;;24.50;99.90;;;;;;5087229;28;20545;-36
2022/06/19 00:14:34;;;;;;;11.10;6.57;;;24.50;99.90;;;;;;5085989;28;20522;-37
2022/06/19 00:17:01;;;;;;;6.40;5.80;;;24.40;99.90;;;;;;5088237;28;20450;-38
2022/06/19 00:19:28;;;;;;;7.20;6.60;;;24.40;99.90;;;;;;5089758;28;20472;-37
2022/06/19 00:21:55;;;;;;;6.10;5.50;;;24.30;99.90;;;;;;5089990;28;20434;-39
2022/06/19 00:24:22;;;;;;;13.33;8.30;;;24.30;99.90;;;;;;5084912;28;20514;-35
2022/06/19 00:26:49;;;;;;;7.30;6.50;;;24.30;99.90;;;;;;5086921;28;20511;-38
2022/06/19 00:29:17;;;;;;;6.97;6.27;;;24.20;99.90;;;;;;5082072;28;20447;-38
2022/06/19 00:31:44;;;;;;;7.20;6.37;;;24.20;99.90;;;;;;5079999;28;20481;-37
2022/06/19 00:34:10;;;;;;;8.80;6.90;;;24.20;99.90;;;;;;5082665;28;20431;-37
2022/06/19 00:36:37;;;;;;;35.17;19.77;;;24.20;99.90;;;;;;5085603;28;20450;-38
2022/06/19 00:39:04;;;;;;;10.83;9.37;;;24.10;99.90;;;;;;5083978;28;20513;-37
2022/06/19 00:41:35;;;;;;;10.00;6.67;;;24.10;99.90;;;;;;5088151;28;20425;-35
2022/06/19 00:44:04;;;;;;;8.13;7.07;;;24.00;99.90;;;;;;5091988;28;20533;-38
2022/06/19 00:47:02;;;;;;;9.40;7.50;;;24.00;99.90;;;;;;5093856;28;20438;-36
2022/06/19 00:49:34;;;;;;;8.60;6.93;;;23.90;99.90;;;;;;5076940;28;20823;-36
2022/06/19 00:52:06;;;;;;;12.93;5.93;;;23.90;99.90;;;;;;5093626;28;20442;-35
2022/06/19 00:54:38;;;;;;;9.43;6.33;;;23.80;99.90;;;;;;5093379;28;20426;-35
2022/06/19 00:57:06;;;;;;;9.07;6.30;;;23.80;99.90;;;;;;5092650;28;20522;-39
2022/06/19 00:59:33;;;;;;;7.27;6.67;;;23.80;99.90;;;;;;5094722;28;20490;-37
2022/06/19 01:02:03;;;;;;;9.13;6.90;;;23.80;99.90;;;;;;5093717;28;20454;-37
2022/06/19 01:04:35;;;;;;;7.60;6.90;;;23.70;99.90;;;;;;5092977;28;20462;-38
2022/06/19 01:07:05;;;;;;;13.13;8.57;;;23.70;99.90;;;;;;5085872;28;20431;-39
2022/06/19 01:09:32;;;;;;;10.40;8.13;;;23.70;99.90;;;;;;5094002;28;20470;-38
2022/06/19 01:12:02;;;;;;;13.30;7.47;;;23.70;99.90;;;;;;5093633;28;20441;-38
2022/06/19 01:14:29;;;;;;;11.63;6.13;;;23.60;99.90;;;;;;5092139;28;20488;-37
2022/06/19 01:16:56;;;;;;;8.30;6.00;;;23.60;99.90;;;;;;5092738;28;20457;-37
2022/06/19 01:19:28;;;;;;;7.40;6.00;;;23.50;99.90;;;;;;5092652;28;20450;-37
2022/06/19 01:22:03;;;;;;;7.93;6.03;;;23.50;99.90;;;;;;5093581;28;20482;-41
2022/06/19 01:24:42;;;;;;;14.47;10.90;;;23.50;99.90;;;;;;5093374;28;20476;-39
2022/06/19 01:28:45;;;;;;;7.80;6.83;;;23.50;99.90;;;;;;5093016;28;20470;-38
2022/06/19 01:30:03;;;;;;;6.30;5.80;;;23.50;99.90;;;;;;5047053;28;20438;-38
2022/06/19 01:32:31;;;;;;;11.93;7.60;;;23.40;99.90;;;;;;5084673;28;20481;-39
2022/06/19 01:35:00;;;;;;;7.60;6.80;;;23.40;99.90;;;;;;5085081;28;20498;-39
2022/06/19 01:37:28;;;;;;;40.07;25.27;;;23.30;99.90;;;;;;5093351;28;20502;-36
2022/06/19 01:39:59;;;;;;;12.40;7.13;;;23.30;99.90;;;;;;5089553;28;20933;-38
2022/06/19 01:42:29;;;;;;;9.90;8.20;;;23.30;99.90;;;;;;5092884;28;20478;-38
2022/06/19 01:44:57;;;;;;;7.40;6.70;;;23.20;99.90;;;;;;5093199;28;20554;-40
2022/06/19 01:47:27;;;;;;;9.43;6.43;;;23.20;99.90;;;;;;5086480;28;20446;-42
2022/06/19 01:50:01;;;;;;;10.17;6.60;;;23.10;99.90;;;;;;5092219;28;20438;-38
2022/06/19 01:52:32;;;;;;;8.83;6.43;;;23.20;99.90;;;;;;5094988;28;20462;-34
2022/06/19 01:55:05;;;;;;;9.87;6.63;;;23.20;99.90;;;;;;5095239;28;20447;-38
2022/06/19 01:57:36;;;;;;;16.77;9.57;;;23.10;99.90;;;;;;5096624;28;20469;-39
2022/06/19 02:00:04;;;;;;;8.27;6.40;;;23.10;99.90;;;;;;5097762;28;20426;-38
2022/06/19 02:02:33;;;;;;;11.27;6.90;;;23.10;99.90;;;;;;5096868;28;20461;-38
2022/06/19 02:05:00;;;;;;;7.57;6.77;;;23.10;99.90;;;;;;5094444;28;20474;-39
2022/06/19 02:07:30;;;;;;;10.03;6.53;;;23.10;99.90;;;;;;5083200;28;20466;-37
2022/06/19 02:09:59;;;;;;;7.60;6.40;;;23.10;99.90;;;;;;5095126;28;20454;-37
2022/06/19 02:12:32;;;;;;;8.13;5.93;;;23.00;99.90;;;;;;5096944;28;20431;-36
2022/06/19 02:15:02;;;;;;;6.00;5.50;;;23.00;99.90;;;;;;5096972;28;20432;-37
2022/06/19 02:17:34;;;;;;;10.83;6.50;;;23.00;99.90;;;;;;5097033;28;20438;-36
2022/06/19 02:20:01;;;;;;;7.33;6.23;;;23.00;99.90;;;;;;5096008;28;20403;-37
2022/06/19 02:22:28;;;;;;;8.70;5.77;;;22.90;99.90;;;;;;5091986;28;20509;-38
2022/06/19 02:24:55;;;;;;;7.60;6.90;;;22.90;99.90;;;;;;5096873;28;20568;-36
2022/06/19 02:27:23;;;;;;;6.50;5.90;;;22.90;99.90;;;;;;5098077;28;20488;-36
2022/06/19 02:29:53;;;;;;;7.80;6.17;;;23.00;99.90;;;;;;5097001;28;20468;-47
2022/06/19 02:32:24;;;;;;;7.63;6.83;;;22.90;99.90;;;;;;5083578;28;20466;-39
2022/06/19 02:34:52;;;;;;;12.60;5.80;;;23.00;99.90;;;;;;5094963;28;20438;-37
2022/06/19 02:37:25;;;;;;;9.20;6.67;;;23.00;99.90;;;;;;5093341;28;20536;-38
2022/06/19 02:39:58;;;;;;;8.30;5.90;;;23.00;99.90;;;;;;5096267;28;20422;-38
2022/06/19 02:42:38;;;;;;;6.87;6.13;;;23.00;99.90;;;;;;5093515;28;20430;-38
2022/06/19 02:45:11;;;;;;;7.03;6.37;;;23.00;99.90;;;;;;5094161;28;20553;-36
2022/06/19 02:47:41;;;;;;;7.50;6.70;;;23.00;99.90;;;;;;5091008;28;20438;-40
2022/06/19 02:50:11;;;;;;;5.83;5.23;;;23.00;99.90;;;;;;5084511;28;20471;-37
2022/06/19 02:52:38;;;;;;;10.40;5.60;;;23.00;99.90;;;;;;5096431;28;20784;-39
2022/06/19 02:55:07;;;;;;;7.03;6.13;;;23.00;99.90;;;;;;5096692;28;20497;-37
2022/06/19 02:57:36;;;;;;;9.10;6.50;;;23.00;99.90;;;;;;5096174;28;20514;-38
2022/06/19 03:00:04;;;;;;;7.10;6.50;;;23.00;99.90;;;;;;5080258;28;20476;-35
2022/06/19 03:02:31;;;;;;;15.40;7.17;;;23.00;99.90;;;;;;5096501;28;20446;-42
2022/06/19 03:05:03;;;;;;;13.30;6.33;;;23.00;99.90;;;;;;5096808;28;20473;-49
2022/06/19 03:07:30;;;;;;;6.50;5.80;;;23.00;99.90;;;;;;5097018;28;20423;-36
2022/06/19 03:09:57;;;;;;;8.63;5.50;;;23.00;99.90;;;;;;5096911;28;20434;-41
2022/06/19 03:12:27;;;;;;;8.70;7.07;;;23.00;99.90;;;;;;5094855;28;20451;-38
2022/06/19 03:14:54;;;;;;;6.50;5.90;;;23.00;99.90;;;;;;5095534;28;20462;-40
2022/06/19 03:17:25;;;;;;;6.70;6.10;;;23.00;99.90;;;;;;5094839;28;20497;-36
2022/06/19 03:19:51;;;;;;;9.47;6.43;;;23.00;99.90;;;;;;5096961;28;20490;-37
2022/06/19 03:22:20;;;;;;;11.30;6.30;;;23.00;99.90;;;;;;5096077;28;20469;-37
2022/06/19 03:24:46;;;;;;;7.77;6.40;;;23.00;99.90;;;;;;5096439;28;20510;-45
2022/06/19 03:27:14;;;;;;;7.00;6.23;;;23.00;99.90;;;;;;5097418;28;20466;-37
2022/06/19 03:29:45;;;;;;;9.20;7.33;;;23.00;99.90;;;;;;5097643;28;20472;-36
2022/06/19 03:32:13;;;;;;;8.00;6.77;;;23.00;99.90;;;;;;5096136;28;20437;-37
2022/06/19 03:34:44;;;;;;;9.10;7.13;;;23.00;99.90;;;;;;5092030;28;20490;-38
2022/06/19 03:37:13;;;;;;;8.10;7.37;;;23.00;99.90;;;;;;5093953;28;20438;-37
2022/06/19 03:39:42;;;;;;;7.07;6.47;;;23.10;99.90;;;;;;5092584;28;20453;-37
2022/06/19 03:42:11;;;;;;;7.40;6.70;;;23.10;99.90;;;;;;5095845;28;20455;-38
2022/06/19 03:44:38;;;;;;;7.33;6.63;;;23.10;99.90;;;;;;5096141;28;20462;-39
2022/06/19 03:47:08;;;;;;;7.43;6.73;;;23.10;99.90;;;;;;5095691;28;20495;-39
2022/06/19 03:49:35;;;;;;;10.27;6.77;;;23.10;99.90;;;;;;5090872;28;20434;-39
2022/06/19 03:52:07;;;;;;;8.40;7.20;;;23.10;99.90;;;;;;5089461;28;20478;-39
2022/06/19 03:54:36;;;;;;;6.90;5.57;;;23.10;99.90;;;;;;5089273;28;20455;-39
2022/06/19 03:57:05;;;;;;;9.60;6.97;;;23.10;99.90;;;;;;5089387;28;20530;-38
2022/06/19 03:59:33;;;;;;;9.73;7.40;;;23.10;99.90;;;;;;5080961;28;20446;-39
2022/06/19 04:02:00;;;;;;;7.57;6.90;;;23.10;99.90;;;;;;5094958;28;20553;-38
2022/06/19 04:04:27;;;;;;;9.43;7.03;;;23.10;99.90;;;;;;5095299;28;20510;-37
2022/06/19 04:06:53;;;;;;;7.23;6.63;;;23.10;99.90;;;;;;5094147;28;20474;-37
2022/06/19 04:09:20;;;;;;;6.93;6.23;;;23.10;99.90;;;;;;5095860;28;20490;-36
2022/06/19 04:11:47;;;;;;;12.40;7.50;;;23.10;99.90;;;;;;5092962;28;20465;-39
2022/06/19 04:14:16;;;;;;;7.67;6.90;;;23.10;99.90;;;;;;5093937;28;20526;-38
2022/06/19 04:16:43;;;;;;;8.90;7.77;;;23.10;99.90;;;;;;5094639;28;20418;-40
2022/06/19 04:19:14;;;;;;;8.57;7.33;;;23.10;99.90;;;;;;5086121;28;20470;-36
2022/06/19 04:21:43;;;;;;;8.47;7.27;;;23.20;99.90;;;;;;5094184;28;20425;-36
2022/06/19 04:24:16;;;;;;;8.23;7.47;;;23.20;99.90;;;;;;5085972;28;20557;-36
2022/06/19 04:26:43;;;;;;;11.10;6.93;;;23.20;99.90;;;;;;5090215;28;20509;-37
2022/06/19 04:29:12;;;;;;;8.17;7.37;;;23.20;99.90;;;;;;5090957;28;20445;-36
2022/06/19 04:31:40;;;;;;;8.20;7.20;;;23.30;99.90;;;;;;5093739;28;20426;-37
2022/06/19 04:34:08;;;;;;;9.53;7.87;;;23.20;99.90;;;;;;5094504;28;20919;-37
2022/06/19 04:36:38;;;;;;;7.53;6.80;;;23.20;99.90;;;;;;5095611;28;20492;-37
2022/06/19 04:39:07;;;;;;;8.40;7.70;;;23.20;99.90;;;;;;5094835;28;20448;-35
2022/06/19 04:41:36;;;;;;;8.50;7.30;;;23.20;99.90;;;;;;5089766;28;20466;-37
2022/06/19 04:44:08;;;;;;;9.03;7.20;;;23.20;99.90;;;;;;5095513;28;20461;-36
2022/06/19 04:46:36;;;;;;;9.43;7.50;;;23.20;99.90;;;;;;5082888;28;20504;-39
2022/06/19 04:49:04;;;;;;;11.17;7.43;;;23.20;99.90;;;;;;5094295;28;20438;-43
2022/06/19 04:51:31;;;;;;;11.13;8.90;;;23.20;99.90;;;;;;5092789;28;20463;-39
2022/06/19 04:53:58;;;;;;;9.20;8.40;;;23.30;99.90;;;;;;5082330;28;20542;-39
2022/06/19 04:56:25;;;;;;;9.97;8.00;;;23.30;99.90;;;;;;5090567;28;20470;-36
2022/06/19 04:58:52;;;;;;;9.37;8.50;;;23.20;99.90;;;;;;5094155;28;20450;-38
2022/06/19 05:01:24;;;;;;;13.80;8.80;;;23.30;99.90;;;;;;5095296;28;20502;-36
2022/06/19 05:03:53;;;;;;;11.93;8.43;;;23.40;99.90;;;;;;5090507;28;20434;-35
2022/06/19 05:06:21;;;;;;;11.33;8.70;;;23.40;99.90;;;;;;5094028;28;20481;-37
2022/06/19 05:08:48;;;;;;;11.40;8.70;;;23.50;99.90;;;;;;5094606;28;20523;-37
2022/06/19 05:11:16;;;;;;;10.67;8.47;;;23.60;99.90;;;;;;5094308;28;20517;-37
2022/06/19 05:13:43;;;;;;;11.77;7.90;;;23.60;99.90;;;;;;5095568;28;20469;-40
2022/06/19 05:16:15;;;;;;;9.47;8.23;;;23.70;99.90;;;;;;5087077;28;20467;-44
2022/06/19 05:18:43;;;;;;;12.47;9.80;;;23.80;99.90;;;;;;5042141;28;20473;-38
2022/06/19 05:21:10;;;;;;;13.27;9.13;;;23.80;99.90;;;;;;5091010;28;20481;-39
2022/06/19 05:23:42;;;;;;;9.50;8.40;;;23.80;99.90;;;;;;5083569;28;20470;-38
2022/06/19 05:26:11;;;;;;;12.23;9.03;;;23.90;99.90;;;;;;5094232;28;20554;-41
2022/06/19 05:28:39;;;;;;;12.60;9.97;;;24.00;99.90;;;;;;5076690;28;20442;-37
2022/06/19 05:31:07;;;;;;;11.30;8.90;;;24.10;99.90;;;;;;5091472;28;20486;-39
2022/06/19 05:33:35;;;;;;;12.17;8.90;;;24.20;99.90;;;;;;5094187;28;20855;-40
2022/06/19 05:36:03;;;;;;;10.53;9.20;;;24.20;99.90;;;;;;5094736;28;20450;-38
2022/06/19 05:38:30;;;;;;;9.60;8.60;;;24.30;99.90;;;;;;5094258;28;20486;-38
2022/06/19 05:41:00;;;;;;;9.50;8.57;;;24.40;99.90;;;;;;5082323;28;20490;-38
2022/06/19 05:43:29;;;;;;;11.50;8.80;;;24.50;99.90;;;;;;5094332;28;20549;-40
2022/06/19 05:45:58;;;;;;;12.73;9.37;;;24.50;99.90;;;;;;5094195;28;20486;-40
2022/06/19 05:48:26;;;;;;;9.30;7.97;;;24.60;99.90;;;;;;5093813;28;20427;-41
2022/06/19 05:51:00;;;;;;;12.70;8.60;;;24.70;99.90;;;;;;5094160;28;20439;-48
2022/06/19 05:53:28;;;;;;;11.33;9.07;;;24.80;99.90;;;;;;5092539;28;20433;-39
2022/06/19 05:55:55;;;;;;;10.20;9.20;;;24.90;99.90;;;;;;5090884;28;20443;-36
2022/06/19 05:58:26;;;;;;;17.03;8.40;;;24.90;99.90;;;;;;5094082;28;20477;-38
2022/06/19 06:00:53;;;;;;;9.23;8.00;;;25.00;99.90;;;;;;5091285;28;20473;-40
2022/06/19 06:03:22;;;;;;;9.53;8.40;;;25.10;99.90;;;;;;5089265;28;20521;-39
2022/06/19 06:05:52;;;;;;;14.00;8.60;;;25.10;99.90;;;;;;5092971;28;20712;-39
2022/06/19 06:08:20;;;;;;;14.20;8.63;;;25.30;99.90;;;;;;5092369;28;20533;-38
2022/06/19 06:10:49;;;;;;;13.20;8.73;;;25.40;99.90;;;;;;5092891;28;20462;-39
2022/06/19 06:13:17;;;;;;;16.13;9.90;;;25.50;99.90;;;;;;5092892;28;20434;-37
2022/06/19 06:15:45;;;;;;;9.80;8.87;;;25.60;99.90;;;;;;5093564;28;20434;-38
2022/06/19 06:18:12;;;;;;;9.00;7.50;;;25.70;99.90;;;;;;5093142;28;20505;-36
2022/06/19 06:20:42;;;;;;;9.70;8.10;;;25.80;99.90;;;;;;5044222;28;20497;-39
2022/06/19 06:23:09;;;;;;;11.90;7.80;;;26.00;99.90;;;;;;5094432;28;20419;-37
2022/06/19 06:25:40;;;;;;;9.53;8.27;;;26.10;99.90;;;;;;5093810;28;20458;-40
2022/06/19 06:28:07;;;;;;;9.93;8.73;;;26.20;99.90;;;;;;5093357;28;20423;-38
2022/06/19 06:30:34;;;;;;;12.43;8.17;;;26.30;99.90;;;;;;5092093;28;20513;-37
2022/06/19 06:33:06;;;;;;;13.93;7.40;;;26.40;99.90;;;;;;5088945;28;20454;-38
2022/06/19 06:35:33;;;;;;;18.43;8.23;;;26.60;99.90;;;;;;5090295;28;20445;-38
2022/06/19 06:38:00;;;;;;;16.90;8.17;;;26.60;99.90;;;;;;5091200;28;20462;-39
2022/06/19 06:40:27;;;;;;;15.53;9.13;;;26.80;99.90;;;;;;5096608;28;20446;-38
2022/06/19 06:42:54;;;;;;;10.00;7.07;;;26.90;99.90;;;;;;5090270;28;20493;-39
2022/06/19 06:45:24;;;;;;;12.33;7.50;;;27.10;99.90;;;;;;5094181;28;20506;-40
2022/06/19 06:47:51;;;;;;;11.40;8.00;;;27.20;99.90;;;;;;5093767;28;20482;-41
2022/06/19 06:50:20;;;;;;;9.37;7.57;;;27.20;99.90;;;;;;5094428;28;20549;-39
2022/06/19 06:52:47;;;;;;;13.17;7.70;;;27.40;99.90;;;;;;5096596;28;20476;-38
2022/06/19 06:55:14;;;;;;;11.83;7.60;;;27.60;99.90;;;;;;5096396;28;20494;-40
2022/06/19 06:57:41;;;;;;;10.33;7.83;;;27.70;99.90;;;;;;5096388;28;20542;-39
2022/06/19 07:00:23;;;;;;;15.00;9.23;;;27.90;99.90;;;;;;5096655;28;20419;-45
2022/06/19 07:02:51;;;;;;;8.53;7.57;;;28.00;99.90;;;;;;5096751;28;20454;-39
2022/06/19 07:05:22;;;;;;;7.63;6.93;;;28.20;99.90;;;;;;5095022;28;20476;-41
2022/06/19 07:07:49;;;;;;;13.50;7.97;;;28.40;99.90;;;;;;5092227;28;21081;-41
2022/06/19 07:10:16;;;;;;;9.60;7.13;;;28.60;99.90;;;;;;5091455;28;20526;-41
2022/06/19 07:12:43;;;;;;;11.73;7.20;;;28.80;99.90;;;;;;5096675;28;20501;-39
2022/06/19 07:15:11;;;;;;;9.60;7.40;;;29.00;98.50;;;;;;5095411;28;20470;-38
2022/06/19 07:17:39;;;;;;;9.40;7.00;;;29.30;98.00;;;;;;5091121;28;20541;-40
2022/06/19 07:20:07;;;;;;;10.73;7.00;;;29.80;96.20;;;;;;5081381;28;20439;-41
2022/06/19 07:22:35;;;;;;;10.90;7.17;;;30.60;94.50;;;;;;5096135;28;20458;-39
2022/06/19 07:25:03;;;;;;;15.50;9.93;;;31.40;92.20;;;;;;5097173;28;20443;-41
2022/06/19 07:27:30;;;;;;;11.90;6.90;;;32.40;88.80;;;;;;5090455;28;20574;-40
2022/06/19 07:29:57;;;;;;;9.30;6.73;;;33.30;84.10;;;;;;5093572;28;20426;-41
2022/06/19 07:32:23;;;;;;;14.70;7.40;;;34.10;80.10;;;;;;5094809;28;20455;-40
2022/06/19 07:34:50;;;;;;;11.00;7.10;;;34.80;74.10;;;;;;5096140;28;20513;-38
2022/06/19 07:37:17;;;;;;;9.87;5.50;;;35.40;69.90;;;;;;5085198;28;20427;-37
2022/06/19 07:39:45;;;;;;;12.50;6.53;;;35.90;66.00;;;;;;5095221;28;20474;-39
2022/06/19 07:42:12;;;;;;;12.87;6.20;;;36.30;62.00;;;;;;5084038;28;20465;-39
2022/06/19 07:44:40;;;;;;;12.53;6.20;;;36.50;60.70;;;;;;5082996;28;20810;-42
2022/06/19 07:50:13;;;;;;;13.63;6.83;;;37.60;57.50;;;;;;5087273;28;20421;-39
2022/06/19 07:52:45;;;;;;;7.13;6.00;;;37.80;55.30;;;;;;5088703;28;20427;-40
2022/06/19 07:55:17;;;;;;;9.83;5.13;;;37.90;54.00;;;;;;5083619;28;20427;-44
2022/06/19 07:57:44;;;;;;;11.17;5.67;;;38.20;53.30;;;;;;5083489;28;20456;-40
2022/06/19 08:00:16;;;;;;;12.73;5.30;;;38.40;52.10;;;;;;5084073;28;20462;-42
2022/06/19 08:02:45;;;;;;;5.83;4.90;;;38.50;51.10;;;;;;5086863;28;20431;-40
2022/06/19 08:05:12;;;;;;;9.33;6.30;;;38.60;50.70;;;;;;5084710;28;20525;-41
2022/06/19 08:07:39;;;;;;;10.30;4.57;;;39.00;50.10;;;;;;5085316;28;20509;-42
2022/06/19 08:10:08;;;;;;;9.67;5.70;;;39.30;49.50;;;;;;5093576;28;20422;-41
2022/06/19 08:12:36;;;;;;;12.43;5.30;;;39.80;48.50;;;;;;5088139;28;20466;-39
2022/06/19 08:15:03;;;;;;;12.00;5.70;;;39.90;47.80;;;;;;5087009;28;20502;-38
2022/06/19 08:17:30;;;;;;;15.00;5.80;;;40.00;46.30;;;;;;5085539;28;20492;-48
2022/06/19 08:19:58;;;;;;;13.03;4.83;;;39.90;46.80;;;;;;5087609;28;20576;-41
2022/06/19 08:22:25;;;;;;;10.10;5.77;;;40.20;45.50;;;;;;5084312;28;20446;-40
2022/06/19 08:24:52;;;;;;;6.40;4.20;;;40.20;44.60;;;;;;5086022;28;20467;-39
2022/06/19 08:27:19;;;;;;;20.57;4.70;;;40.00;44.60;;;;;;5085366;28;20470;-37
2022/06/19 08:29:47;;;;;;;12.70;4.70;;;39.80;44.10;;;;;;5084781;28;20462;-40
2022/06/19 08:32:14;;;;;;;11.27;4.50;;;39.50;44.30;;;;;;5081947;28;20534;-41
2022/06/19 08:34:41;;;;;;;12.13;4.67;;;39.50;44.70;;;;;;5084478;28;20554;-42
2022/06/19 08:37:10;;;;;;;10.50;4.70;;;40.00;43.80;;;;;;5085563;28;20462;-39
2022/06/19 08:39:37;;;;;;;10.50;4.83;;;40.00;43.20;;;;;;5085614;28;20522;-41
2022/06/19 08:42:24;;;;;;;9.30;4.63;;;40.40;43.10;;;;;;5086158;28;20455;-44
2022/06/19 08:45:09;;;;;;;14.87;5.53;;;40.40;42.60;;;;;;5084429;28;21001;-41
2022/06/19 08:47:57;;;;;;;8.10;4.53;;;40.70;42.30;;;;;;5083457;28;20865;-39
2022/06/19 08:50:34;;;;;;;5.27;4.00;;;40.60;41.80;;;;;;5080629;28;20506;-41
2022/06/19 08:53:19;;;;;;;15.37;4.70;;;40.70;42.00;;;;;;5082905;28;20430;-42
2022/06/19 08:55:56;;;;;;;9.20;4.00;;;40.90;41.80;;;;;;5093891;28;20431;-40
2022/06/19 08:58:33;;;;;;;8.07;4.30;;;40.90;41.80;;;;;;5095885;28;20474;-40
2022/06/19 09:01:05;;;;;;;6.97;4.60;;;41.20;41.50;;;;;;5094885;28;20476;-44
2022/06/19 09:06:38;;;;;;;7.70;4.13;;;41.60;41.00;;;;;;5096255;28;20402;-38
2022/06/19 09:09:35;;;;;;;13.47;5.07;;;41.90;40.70;;;;;;5095832;28;20438;-36
2022/06/19 09:12:20;;;;;;;13.80;4.90;;;42.10;39.50;;;;;;5096354;28;20431;-41
2022/06/19 09:14:57;;;;;;;13.70;4.60;;;42.00;38.60;;;;;;5096027;28;20450;-42
2022/06/19 09:17:30;;;;;;;11.77;4.97;;;42.00;38.40;;;;;;5096115;28;20429;-42
2022/06/19 09:20:08;;;;;;;10.93;4.87;;;41.90;38.80;;;;;;5095362;28;20887;-39
2022/06/19 09:22:55;;;;;;;10.93;5.20;;;41.90;38.60;;;;;;5094463;28;20438;-41
2022/06/19 09:25:39;;;;;;;16.27;5.13;;;42.00;37.80;;;;;;5089377;28;20527;-42
2022/06/19 09:28:13;;;;;;;10.97;5.53;;;41.60;38.20;;;;;;5077676;28;20581;-44
2022/06/19 09:30:44;;;;;;;9.80;4.23;;;41.70;38.30;;;;;;5062167;28;20510;-41
2022/06/19 09:33:18;;;;;;;8.57;5.20;;;41.70;38.10;;;;;;5062081;28;20519;-47
2022/06/19 09:35:49;;;;;;;13.80;4.30;;;41.60;37.30;;;;;;5060087;28;20475;-42
2022/06/19 09:38:23;;;;;;;14.30;7.30;;;41.60;37.60;;;;;;5076617;28;20497;-44
2022/06/19 09:41:01;;;;;;;28.10;7.80;;;41.70;36.80;;;;;;5082642;28;20471;-41
2022/06/19 09:43:34;;;;;;;7.90;6.07;;;41.70;36.60;;;;;;5085802;28;20476;-44
2022/06/19 09:46:06;;;;;;;14.90;6.67;;;41.60;36.70;;;;;;5081767;28;20501;-43
2022/06/19 09:48:41;;;;;;;12.30;9.30;;;41.30;36.60;;;;;;5068786;28;20474;-38
2022/06/19 09:51:14;;;;;;;10.50;5.37;;;41.30;37.50;;;;;;5058886;28;20553;-43
2022/06/19 09:53:46;;;;;;;12.33;7.00;;;41.20;37.00;;;;;;5059668;28;20428;-40
2022/06/19 09:56:20;;;;;;;15.40;6.97;;;41.10;36.70;;;;;;5061501;28;20566;-41
2022/06/19 09:58:52;;;;;;;14.27;6.90;;;41.10;37.00;;;;;;5065805;28;20914;-39
2022/06/19 10:01:19;;;;;;;15.57;6.87;;;41.40;36.90;;;;;;5064268;28;20451;-38
2022/06/19 10:03:54;;;;;;;16.63;10.00;;;41.50;36.70;;;;;;5063783;28;20463;-42
2022/06/19 10:06:30;;;;;;;10.10;7.90;;;41.50;36.20;;;;;;5060611;28;20804;-41
2022/06/19 10:09:04;;;;;;;11.90;8.70;;;41.30;36.70;;;;;;5060713;28;20783;-45
2022/06/19 10:11:33;;;;;;;16.03;7.20;;;41.30;36.50;;;;;;5062814;28;20554;-43
2022/06/19 10:14:03;;;;;;;8.57;4.27;;;41.20;36.30;;;;;;5064037;28;20465;-41
2022/06/19 10:16:39;;;;;;;8.87;4.60;;;40.90;36.10;;;;;;5063806;28;20470;-40
2022/06/19 10:19:18;;;;;;;12.20;5.43;;;40.40;37.20;;;;;;5062945;28;20431;-38
2022/06/19 10:24:46;;;;;;;13.73;4.17;;;39.80;37.40;;;;;;5063473;28;20419;-39
2022/06/19 10:27:20;;;;;;;11.63;4.07;;;39.50;37.80;;;;;;5065594;28;20555;-40
2022/06/19 10:29:59;;;;;;;11.60;5.47;;;39.30;37.60;;;;;;5060910;28;20426;-40
2022/06/19 10:32:41;;;;;;;16.03;6.03;;;39.00;38.20;;;;;;5063425;28;20801;-41
2022/06/19 10:35:16;;;;;;;13.43;4.70;;;38.70;38.50;;;;;;5062179;28;20439;-39
2022/06/19 10:37:54;;;;;;;14.80;6.20;;;38.60;38.70;;;;;;5063928;28;20467;-41
2022/06/19 10:40:32;;;;;;;11.00;5.10;;;38.70;39.20;;;;;;5066537;28;20431;-40
2022/06/19 10:43:09;;;;;;;9.87;5.50;;;38.60;38.70;;;;;;5063672;28;20477;-40
2022/06/19 10:45:43;;;;;;;13.30;4.63;;;38.50;38.90;;;;;;5064162;28;20427;-38
2022/06/19 10:48:24;;;;;;;13.47;5.30;;;38.20;39.50;;;;;;5062827;28;20487;-38
2022/06/19 10:51:12;;;;;;;9.67;3.60;;;38.20;40.10;;;;;;5062974;28;20437;-39
2022/06/19 10:54:00;;;;;;;11.90;4.07;;;37.90;39.50;;;;;;5063078;28;20467;-40
2022/06/19 10:56:36;;;;;;;12.40;5.30;;;38.00;40.20;;;;;;5062664;28;20826;-40
2022/06/19 10:59:05;;;;;;;9.53;5.00;;;38.20;39.90;;;;;;5062188;28;20550;-37
2022/06/19 11:04:23;;;;;;;16.00;4.40;;;38.20;40.10;;;;;;5061689;28;20457;-38
2022/06/19 11:06:56;;;;;;;9.10;5.40;;;38.20;40.30;;;;;;5065620;28;20478;-38
2022/06/19 11:09:29;;;;;;;14.97;5.43;;;38.40;40.30;;;;;;5063042;28;20501;-41
2022/06/19 11:12:01;;;;;;;8.33;4.03;;;38.50;39.80;;;;;;5062498;28;20447;-43
2022/06/19 11:14:31;;;;;;;15.03;4.53;;;38.50;40.10;;;;;;5061440;28;20463;-40
2022/06/19 11:17:01;;;;;;;17.27;5.43;;;38.50;40.00;;;;;;5062436;28;21037;-40
2022/06/19 11:19:38;;;;;;;7.53;4.73;;;38.40;40.10;;;;;;5061278;28;20482;-41
2022/06/19 11:22:08;;;;;;;14.30;5.60;;;38.40;40.40;;;;;;5064187;28;20439;-39
2022/06/19 11:24:42;;;;;;;11.53;4.63;;;38.30;40.30;;;;;;5063270;28;20497;-36
2022/06/19 11:27:16;;;;;;;13.73;5.00;;;38.20;40.40;;;;;;5062695;28;20448;-41
2022/06/19 11:29:46;;;;;;;7.37;5.87;;;38.20;40.70;;;;;;5064878;28;20473;-42
2022/06/19 11:32:16;;;;;;;13.87;4.93;;;38.30;40.60;;;;;;5063311;28;20737;-42
2022/06/19 11:34:46;;;;;;;8.60;4.90;;;38.40;40.30;;;;;;5063809;28;20784;-40
2022/06/19 11:37:20;;;;;;;13.13;4.83;;;38.40;40.10;;;;;;5064373;28;20431;-41
2022/06/19 11:39:49;;;;;;;14.30;5.17;;;38.30;39.80;;;;;;5062781;28;20428;-43
2022/06/19 11:42:31;;;;;;;9.20;5.30;;;38.20;40.40;;;;;;5062550;28;20736;-40
2022/06/19 11:45:01;;;;;;;7.20;4.80;;;38.20;40.30;;;;;;5061765;28;20459;-41
2022/06/19 11:47:35;;;;;;;10.33;5.37;;;37.90;40.40;;;;;;5060752;28;20434;-40
2022/06/19 11:50:11;;;;;;;8.33;4.97;;;37.60;40.90;;;;;;5060570;28;20431;-38
2022/06/19 11:52:40;;;;;;;12.73;6.83;;;37.40;41.50;;;;;;5059865;28;20443;-40
2022/06/19 11:55:16;;;;;;;9.77;4.70;;;37.30;41.80;;;;;;5060951;28;20838;-40
2022/06/19 11:57:50;;;;;;;6.43;4.40;;;37.40;41.80;;;;;;5065719;28;20423;-37
2022/06/19 12:00:26;;;;;;;17.23;5.57;;;37.50;43.30;;;;;;5071440;28;20482;-41
2022/06/19 12:02:56;;;;;;;9.47;5.70;;;37.30;45.80;;;;;;5067829;28;20434;-39
2022/06/19 12:05:26;;;;;;;7.47;6.20;;;37.10;45.90;;;;;;5062497;28;20447;-37
2022/06/19 12:07:55;;;;;;;12.80;6.00;;;37.10;47.00;;;;;;5074299;28;20511;-37
2022/06/19 12:10:26;;;;;;;10.50;5.97;;;36.90;47.50;;;;;;5074449;28;20522;-39
2022/06/19 12:12:56;;;;;;;13.93;6.10;;;36.70;48.50;;;;;;5073273;28;20501;-40
2022/06/19 12:15:26;;;;;;;14.73;6.40;;;36.60;49.80;;;;;;5072103;28;20450;-38
2022/06/19 12:17:59;;;;;;;8.50;6.13;;;36.40;50.70;;;;;;5070659;28;20530;-38
2022/06/19 12:20:29;;;;;;;8.80;6.17;;;36.30;50.90;;;;;;5061494;28;20444;-39
2022/06/19 12:23:02;;;;;;;12.03;7.03;;;36.10;50.90;;;;;;5062824;28;20527;-38
2022/06/19 12:25:38;;;;;;;7.30;6.13;;;35.90;51.40;;;;;;5059396;28;20510;-40
2022/06/19 12:28:12;;;;;;;11.70;6.80;;;35.40;51.30;;;;;;5063918;28;20870;-41
2022/06/19 12:30:44;;;;;;;7.70;5.70;;;35.10;51.20;;;;;;5065330;28;20423;-39
2022/06/19 12:33:17;;;;;;;8.70;6.50;;;35.00;51.20;;;;;;5075118;28;20461;-37
2022/06/19 12:35:48;;;;;;;14.67;7.63;;;34.90;51.40;;;;;;5068838;28;20466;-39
2022/06/19 12:38:19;;;;;;;13.47;6.30;;;34.80;51.20;;;;;;5077940;28;20439;-39
2022/06/19 12:41:05;;;;;;;19.70;7.63;;;34.60;51.30;;;;;;5068578;28;20478;-47
2022/06/19 12:43:40;;;;;;;13.57;5.43;;;34.50;51.50;;;;;;5080170;28;20442;-40
2022/06/19 12:46:18;;;;;;;11.77;5.63;;;34.40;51.70;;;;;;5064953;28;20467;-40
2022/06/19 12:48:50;;;;;;;8.70;6.60;;;34.30;51.30;;;;;;5074099;28;20470;-38
2022/06/19 12:51:22;;;;;;;15.87;5.43;;;34.30;51.70;;;;;;5072023;28;20785;-40
2022/06/19 12:54:24;;;;;;;10.03;5.70;;;34.20;51.80;;;;;;5073686;28;20896;-40
2022/06/19 12:57:07;;;;;;;6.33;5.23;;;33.90;51.90;;;;;;5065683;28;20441;-35
2022/06/19 12:59:50;;;;;;;11.73;6.63;;;33.70;52.20;;;;;;5067866;28;20495;-45
2022/06/19 13:02:23;;;;;;;13.27;4.97;;;33.70;53.10;;;;;;5073266;28;20551;-39
2022/06/19 13:05:03;;;;;;;10.13;6.00;;;33.70;52.50;;;;;;5080694;28;20427;-41
2022/06/19 13:07:42;;;;;;;13.00;5.50;;;33.70;51.80;;;;;;5077457;28;20466;-40
2022/06/19 13:10:35;;;;;;;14.27;5.13;;;33.70;52.10;;;;;;5064284;28;20435;-37
2022/06/19 13:13:33;;;;;;;8.70;5.20;;;33.70;52.20;;;;;;5066792;28;20470;-39